Time;durP1;ratioP1;P1;durP2;ratioP2;P2;SDS_P1;SDS_P2;PMS_P1;PMS_P2;Temp;Humidity;BMP_temperature;BMP_pressure;BME280_temperature;BME280_humidity;BME280_pressure;Samples;Min_cycle;Max_cycle;Signal;HPM_P1;HPM_P2
2023/06/11 00:02:15;;;;;;;11.98;3.80;;;17.10;78.70;;;;;;5030178;28;20044;-46
2023/06/11 00:04:45;;;;;;;10.85;4.35;;;17.10;78.90;;;;;;5033481;28;20104;-48
2023/06/11 00:07:15;;;;;;;;;;;17.10;78.80;;;;;;5035145;28;20105;-45
2023/06/11 00:09:42;;;;;;;7.30;2.97;;;17.10;78.50;;;;;;5046078;28;20338;-45
2023/06/11 00:12:09;;;;;;;9.73;4.50;;;17.00;78.40;;;;;;5026890;28;20104;-45
2023/06/11 00:14:36;;;;;;;8.25;3.67;;;17.00;77.90;;;;;;5046066;28;20458;-45
2023/06/11 00:17:04;;;;;;;6.65;3.50;;;17.00;77.70;;;;;;5036716;28;20111;-46
2023/06/11 00:19:30;;;;;;;11.18;4.03;;;17.00;77.60;;;;;;5035202;28;20029;-45
2023/06/11 00:21:58;;;;;;;6.78;3.90;;;16.90;77.50;;;;;;5036099;28;20035;-46
2023/06/11 00:24:25;;;;;;;5.65;3.65;;;16.90;77.20;;;;;;5033924;28;20033;-46
2023/06/11 00:26:50;;;;;;;6.82;3.20;;;16.90;77.30;;;;;;5033883;28;20034;-46
2023/06/11 00:29:17;;;;;;;15.63;4.47;;;16.90;77.10;;;;;;5035490;28;20022;-47
2023/06/11 00:31:44;;;;;;;7.05;3.25;;;16.90;77.20;;;;;;5035082;28;20017;-46
2023/06/11 00:34:11;;;;;;;13.30;3.65;;;16.90;77.00;;;;;;5049552;28;20032;-46
2023/06/11 00:36:40;;;;;;;7.35;3.30;;;16.80;77.10;;;;;;5032222;28;20030;-45
2023/06/11 00:39:06;;;;;;;10.77;3.93;;;16.80;76.90;;;;;;5032904;28;20033;-46
2023/06/11 00:41:33;;;;;;;7.32;3.45;;;16.80;76.80;;;;;;5043763;28;20776;-46
2023/06/11 00:44:00;;;;;;;8.60;3.88;;;16.70;77.00;;;;;;5037857;28;20063;-47
2023/06/11 00:46:27;;;;;;;9.07;3.60;;;16.80;77.20;;;;;;5054092;28;20028;-46
2023/06/11 00:48:53;;;;;;;7.65;3.20;;;16.70;77.00;;;;;;5046249;28;20044;-46
2023/06/11 00:51:22;;;;;;;9.35;4.32;;;16.70;76.90;;;;;;5016643;28;20030;-47
2023/06/11 00:53:48;;;;;;;7.18;3.10;;;16.70;76.90;;;;;;5029912;28;20453;-46
2023/06/11 00:56:17;;;;;;;9.95;3.25;;;16.60;77.20;;;;;;5053677;28;20037;-45
2023/06/11 00:58:45;;;;;;;7.68;3.72;;;16.60;77.30;;;;;;5036778;28;20041;-47
2023/06/11 01:01:17;;;;;;;6.95;3.33;;;16.50;77.10;;;;;;5032460;28;20457;-46
2023/06/11 01:03:43;;;;;;;13.10;3.67;;;16.50;76.90;;;;;;5045035;28;20072;-46
2023/06/11 01:06:17;;;;;;;13.48;4.13;;;16.50;77.30;;;;;;5015614;28;20036;-49
2023/06/11 01:08:52;;;;;;;8.90;3.08;;;16.40;77.20;;;;;;5022944;28;20029;-46
2023/06/11 01:11:21;;;;;;;8.82;3.78;;;16.40;77.30;;;;;;5040281;28;20136;-45
2023/06/11 01:13:51;;;;;;;7.28;3.28;;;16.40;76.90;;;;;;5015677;28;20026;-46
2023/06/11 01:16:47;;;;;;;8.15;3.45;;;16.40;76.70;;;;;;5014820;28;20112;-45
2023/06/11 01:19:37;;;;;;;7.43;3.50;;;16.40;76.80;;;;;;5035826;28;20041;-45
2023/06/11 01:22:13;;;;;;;6.40;3.22;;;16.40;76.90;;;;;;5054986;28;20036;-45
2023/06/11 01:25:08;;;;;;;5.80;3.13;;;16.40;76.70;;;;;;5044638;28;20024;-46
2023/06/11 01:28:12;;;;;;;6.28;2.90;;;16.40;76.80;;;;;;5053663;28;20075;-46
2023/06/11 01:30:48;;;;;;;8.98;3.63;;;16.40;76.60;;;;;;5048859;28;20078;-45
2023/06/11 01:33:14;;;;;;;8.82;3.53;;;16.30;77.00;;;;;;5015773;28;20034;-48
2023/06/11 01:35:46;;;;;;;6.47;3.50;;;16.30;77.10;;;;;;5018871;28;20032;-47
2023/06/11 01:38:13;;;;;;;5.60;2.92;;;16.20;77.00;;;;;;5051611;28;20032;-45
2023/06/11 01:40:40;;;;;;;6.35;3.40;;;16.20;77.20;;;;;;5053238;28;20079;-46
2023/06/11 01:43:07;;;;;;;10.75;3.08;;;16.20;76.90;;;;;;5054342;28;20020;-45
2023/06/11 01:45:36;;;;;;;11.60;3.90;;;16.20;77.50;;;;;;5049727;28;20100;-45
2023/06/11 01:48:03;;;;;;;7.20;3.35;;;16.20;77.30;;;;;;5055223;28;20070;-46
2023/06/11 01:50:30;;;;;;;8.10;3.42;;;16.20;77.30;;;;;;5054579;28;20037;-47
2023/06/11 01:52:57;;;;;;;5.32;3.50;;;16.20;77.10;;;;;;5055155;28;20028;-46
2023/06/11 01:55:23;;;;;;;6.60;2.88;;;16.10;77.30;;;;;;5048034;28;20082;-46
2023/06/11 01:57:50;;;;;;;9.60;3.42;;;16.10;77.20;;;;;;5054950;28;20393;-46
2023/06/11 02:00:18;;;;;;;9.10;3.58;;;16.10;77.30;;;;;;5045266;28;20120;-46
2023/06/11 02:02:49;;;;;;;7.10;3.80;;;16.10;77.20;;;;;;5054659;28;20025;-46
2023/06/11 02:05:16;;;;;;;9.30;3.58;;;16.00;77.40;;;;;;5053532;28;20025;-45
2023/06/11 02:07:43;;;;;;;7.78;3.22;;;16.00;77.50;;;;;;5043411;28;20041;-45
2023/06/11 02:10:10;;;;;;;7.60;2.80;;;16.00;77.50;;;;;;5041635;28;20036;-47
2023/06/11 02:12:37;;;;;;;8.07;3.35;;;16.00;77.50;;;;;;5053539;28;20445;-46
2023/06/11 02:15:08;;;;;;;5.97;2.78;;;15.90;77.50;;;;;;5024048;28;20068;-48
2023/06/11 02:17:35;;;;;;;7.85;2.88;;;15.90;77.50;;;;;;5051617;28;20039;-45
2023/06/11 02:20:05;;;;;;;5.63;3.25;;;15.90;77.50;;;;;;5053250;28;20025;-45
2023/06/11 02:22:33;;;;;;;7.28;2.85;;;15.90;77.60;;;;;;5054396;28;20020;-46
2023/06/11 02:25:01;;;;;;;5.50;3.00;;;15.90;77.50;;;;;;5045363;28;20025;-46
2023/06/11 02:27:27;;;;;;;5.05;2.90;;;15.90;77.40;;;;;;5045845;28;20025;-45
2023/06/11 02:29:56;;;;;;;10.25;2.80;;;15.90;77.40;;;;;;5021746;28;20044;-46
2023/06/11 02:32:22;;;;;;;5.05;2.83;;;15.90;77.60;;;;;;5050181;28;20118;-45
2023/06/11 02:34:50;;;;;;;7.90;2.88;;;15.90;77.50;;;;;;5023390;28;20041;-46
2023/06/11 02:37:17;;;;;;;8.55;3.10;;;15.80;77.70;;;;;;5014513;28;20309;-49
2023/06/11 02:39:45;;;;;;;5.70;2.88;;;15.80;77.30;;;;;;5042162;28;20035;-47
2023/06/11 02:42:14;;;;;;;8.32;3.40;;;15.80;77.60;;;;;;5054099;28;20025;-45
2023/06/11 02:44:41;;;;;;;6.47;2.42;;;15.80;77.30;;;;;;5020127;28;20065;-47
2023/06/11 02:47:08;;;;;;;6.28;2.92;;;15.80;77.30;;;;;;5030530;28;20045;-46
2023/06/11 02:49:34;;;;;;;8.80;2.92;;;15.80;77.30;;;;;;5039561;28;20033;-46
2023/06/11 02:52:00;;;;;;;6.25;2.60;;;15.80;77.30;;;;;;5053724;28;20025;-45
2023/06/11 02:54:27;;;;;;;11.52;3.22;;;15.80;77.20;;;;;;5038468;28;20036;-47
2023/06/11 02:56:54;;;;;;;4.80;2.38;;;15.70;77.30;;;;;;5014145;28;20030;-45
2023/06/11 02:59:20;;;;;;;6.70;2.80;;;15.70;77.20;;;;;;5035597;28;20033;-45
2023/06/11 03:01:47;;;;;;;6.90;2.80;;;15.70;77.30;;;;;;5049201;28;20025;-45
2023/06/11 03:04:14;;;;;;;8.18;2.78;;;15.70;77.20;;;;;;5033383;28;20032;-45
2023/06/11 03:06:40;;;;;;;6.25;2.65;;;15.60;76.90;;;;;;5032399;28;20124;-46
2023/06/11 03:09:06;;;;;;;8.45;2.75;;;15.70;76.90;;;;;;5024670;28;20029;-45
2023/06/11 03:11:33;;;;;;;8.02;3.72;;;15.70;76.80;;;;;;5052615;28;20107;-45
2023/06/11 03:14:00;;;;;;;8.70;2.78;;;15.70;77.00;;;;;;5048512;28;20433;-45
2023/06/11 03:16:26;;;;;;;8.93;2.60;;;15.60;76.80;;;;;;5032915;28;20091;-46
2023/06/11 03:18:53;;;;;;;8.50;2.65;;;15.60;76.40;;;;;;5039865;28;20033;-45
2023/06/11 03:21:21;;;;;;;8.52;3.35;;;15.60;76.80;;;;;;5053399;28;20072;-46
2023/06/11 03:23:48;;;;;;;9.35;3.03;;;15.60;76.90;;;;;;5047667;28;20486;-45
2023/06/11 03:26:14;;;;;;;5.57;2.95;;;15.60;76.70;;;;;;5046531;28;20038;-45
2023/06/11 03:28:41;;;;;;;7.50;2.83;;;15.60;76.70;;;;;;5022526;28;20036;-48
2023/06/11 03:31:06;;;;;;;6.53;2.60;;;15.60;76.50;;;;;;5051158;28;20044;-45
2023/06/11 03:33:33;;;;;;;9.60;3.67;;;15.60;76.40;;;;;;5053045;28;20028;-46
2023/06/11 03:36:01;;;;;;;7.05;2.83;;;15.60;76.20;;;;;;5032073;28;20152;-45
2023/06/11 03:38:28;;;;;;;7.93;2.33;;;15.60;76.40;;;;;;5018251;28;20025;-45
2023/06/11 03:40:55;;;;;;;6.55;2.17;;;15.60;76.30;;;;;;5052556;28;20462;-45
2023/06/11 03:43:24;;;;;;;7.22;2.72;;;15.60;76.20;;;;;;5032968;28;20026;-47
2023/06/11 03:45:51;;;;;;;7.53;2.67;;;15.60;75.80;;;;;;5022969;28;20479;-45
2023/06/11 03:48:18;;;;;;;4.95;2.55;;;15.60;76.20;;;;;;5051517;28;20106;-47
2023/06/11 03:50:45;;;;;;;5.53;2.80;;;15.60;75.60;;;;;;5053157;28;20513;-45
2023/06/11 03:53:14;;;;;;;7.07;2.67;;;15.60;76.00;;;;;;5030853;28;20040;-46
2023/06/11 03:55:43;;;;;;;9.25;3.00;;;15.60;75.90;;;;;;5042147;28;20018;-48
2023/06/11 03:58:09;;;;;;;6.68;2.67;;;15.70;76.20;;;;;;5015825;28;20104;-45
2023/06/11 04:00:36;;;;;;;8.43;2.63;;;15.60;76.00;;;;;;5043175;28;20193;-45
2023/06/11 04:03:03;;;;;;;6.07;2.63;;;15.70;76.00;;;;;;5038011;28;20036;-45
2023/06/11 04:05:35;;;;;;;4.00;2.45;;;15.70;75.70;;;;;;5038285;28;20031;-45
2023/06/11 04:08:00;;;;;;;6.18;2.20;;;15.80;76.00;;;;;;5043788;28;20435;-45
2023/06/11 04:10:29;;;;;;;8.77;3.50;;;15.70;76.00;;;;;;5051764;28;20094;-47
2023/06/11 04:12:56;;;;;;;4.47;2.45;;;15.80;76.40;;;;;;5048278;28;20639;-45
2023/06/11 04:15:23;;;;;;;4.97;2.28;;;15.90;75.90;;;;;;5031712;28;20033;-47
2023/06/11 04:17:50;;;;;;;5.47;2.58;;;15.80;75.60;;;;;;5037485;28;20402;-47
2023/06/11 04:20:16;;;;;;;11.88;3.53;;;15.90;75.50;;;;;;5048224;28;20037;-45
2023/06/11 04:22:42;;;;;;;8.73;2.28;;;15.90;75.00;;;;;;5030876;28;20026;-45
2023/06/11 04:25:11;;;;;;;7.60;2.22;;;15.90;74.70;;;;;;5034459;28;20036;-47
2023/06/11 04:27:40;;;;;;;4.87;2.40;;;16.00;74.60;;;;;;5034427;28;20032;-46
2023/06/11 04:30:09;;;;;;;8.25;3.10;;;16.10;74.40;;;;;;5047641;28;20025;-45
2023/06/11 04:32:36;;;;;;;9.45;2.40;;;16.20;73.10;;;;;;5028833;28;20042;-45
2023/06/11 04:35:06;;;;;;;9.65;2.42;;;16.20;72.50;;;;;;5012223;28;20033;-49
2023/06/11 04:37:40;;;;;;;7.50;2.60;;;16.30;72.60;;;;;;5012712;28;20028;-45
2023/06/11 04:40:13;;;;;;;6.13;2.70;;;16.40;71.40;;;;;;5033590;28;20115;-45
2023/06/11 04:42:40;;;;;;;7.15;2.92;;;16.50;70.90;;;;;;5052552;28;20025;-46
2023/06/11 04:45:09;;;;;;;7.35;2.35;;;16.50;71.50;;;;;;5041448;28;20435;-45
2023/06/11 04:47:40;;;;;;;5.63;2.38;;;16.60;71.20;;;;;;5029140;28;20022;-46
2023/06/11 04:50:06;;;;;;;5.80;2.50;;;16.60;70.60;;;;;;5032078;28;20410;-48
2023/06/11 04:52:38;;;;;;;4.97;1.88;;;16.70;70.90;;;;;;5035004;28;20088;-45
2023/06/11 04:55:06;;;;;;;7.72;2.85;;;16.70;70.60;;;;;;5034739;28;20033;-45
2023/06/11 04:57:33;;;;;;;7.57;2.50;;;16.70;70.10;;;;;;5045567;28;20032;-45
2023/06/11 05:00:01;;;;;;;5.78;2.95;;;16.70;71.10;;;;;;5020735;28;20103;-45
2023/06/11 05:02:28;;;;;;;9.57;3.40;;;16.70;69.80;;;;;;5028795;28;20044;-45
2023/06/11 05:04:54;;;;;;;6.38;2.13;;;16.70;69.90;;;;;;5016167;28;20109;-45
2023/06/11 05:07:23;;;;;;;12.25;3.28;;;16.80;70.40;;;;;;5015567;28;20083;-45
2023/06/11 05:09:50;;;;;;;7.05;3.75;;;16.80;70.20;;;;;;5035242;28;20112;-46
2023/06/11 05:12:17;;;;;;;6.25;2.38;;;16.80;70.10;;;;;;5026362;28;20054;-45
2023/06/11 05:14:46;;;;;;;6.95;2.05;;;16.80;70.40;;;;;;5016042;28;20036;-46
2023/06/11 05:17:16;;;;;;;;;;;16.80;70.50;;;;;;5049881;28;20079;-46
2023/06/11 05:19:43;;;;;;;6.70;2.50;;;16.90;70.90;;;;;;5048106;28;19958;-48
2023/06/11 05:22:10;;;;;;;5.65;2.67;;;16.90;70.00;;;;;;5054676;28;20035;-45
2023/06/11 05:24:41;;;;;;;9.52;2.22;;;16.90;69.30;;;;;;5044678;28;20033;-45
2023/06/11 05:27:10;;;;;;;6.05;2.75;;;16.90;70.20;;;;;;5017277;28;20025;-45
2023/06/11 05:29:37;;;;;;;5.45;2.50;;;16.90;70.50;;;;;;5027792;28;20088;-47
2023/06/11 05:32:05;;;;;;;10.32;3.88;;;16.90;70.60;;;;;;5048944;28;20035;-45
2023/06/11 05:34:33;;;;;;;5.72;2.65;;;16.90;70.20;;;;;;5055268;28;20049;-46
2023/06/11 05:37:01;;;;;;;5.38;2.50;;;17.00;70.50;;;;;;5054781;28;20060;-46
2023/06/11 05:39:31;;;;;;;5.45;2.47;;;17.00;69.90;;;;;;5026804;28;20028;-47
2023/06/11 05:41:58;;;;;;;9.30;2.35;;;17.00;69.60;;;;;;5044053;28;20581;-48
2023/06/11 05:44:25;;;;;;;8.88;2.90;;;17.00;68.50;;;;;;5034713;28;20030;-51
2023/06/11 05:46:52;;;;;;;7.03;2.42;;;17.10;69.00;;;;;;5032597;28;20108;-48
2023/06/11 05:49:20;;;;;;;4.80;2.60;;;17.10;68.20;;;;;;5032344;28;20092;-48
2023/06/11 05:51:47;;;;;;;6.57;2.53;;;17.30;67.70;;;;;;5032989;28;20459;-46
2023/06/11 05:54:17;;;;;;;5.85;2.80;;;17.60;68.20;;;;;;5029223;28;20463;-48
2023/06/11 05:56:44;;;;;;;9.70;2.72;;;17.90;67.00;;;;;;5033618;28;20122;-46
2023/06/11 05:59:11;;;;;;;5.53;2.70;;;18.20;66.30;;;;;;5033047;28;20048;-49
2023/06/11 06:01:44;;;;;;;5.10;2.72;;;18.50;64.60;;;;;;5030523;28;20053;-46
2023/06/11 06:04:13;;;;;;;6.15;2.47;;;18.70;64.60;;;;;;5034424;28;20101;-51
2023/06/11 06:06:40;;;;;;;5.13;2.60;;;18.90;64.10;;;;;;5032295;28;20072;-46
2023/06/11 06:09:07;;;;;;;5.90;2.72;;;18.80;63.30;;;;;;5033551;28;20136;-46
2023/06/11 06:11:34;;;;;;;6.60;2.75;;;18.80;63.60;;;;;;5040448;28;20049;-45
2023/06/11 06:14:02;;;;;;;8.02;3.03;;;18.90;62.70;;;;;;5046077;28;20436;-46
2023/06/11 06:16:31;;;;;;;7.95;2.78;;;19.00;63.30;;;;;;5035369;28;20033;-45
2023/06/11 06:18:56;;;;;;;12.80;3.47;;;19.30;62.90;;;;;;5040700;28;20470;-46
2023/06/11 06:21:23;;;;;;;9.88;2.72;;;19.60;61.90;;;;;;5033573;28;20033;-45
2023/06/11 06:23:51;;;;;;;8.82;3.30;;;19.50;61.30;;;;;;5030206;28;20453;-46
2023/06/11 06:26:18;;;;;;;10.10;3.20;;;19.60;61.70;;;;;;5031334;28;20025;-48
2023/06/11 06:28:44;;;;;;;6.70;2.55;;;19.60;61.20;;;;;;5031526;28;20025;-46
2023/06/11 06:31:13;;;;;;;5.47;2.53;;;19.50;61.50;;;;;;5031990;28;20032;-45
2023/06/11 06:33:40;;;;;;;7.55;3.15;;;19.70;62.10;;;;;;5032826;28;20013;-48
2023/06/11 06:36:09;;;;;;;7.07;2.97;;;19.90;61.70;;;;;;5009371;28;20455;-46
2023/06/11 06:38:36;;;;;;;5.45;2.72;;;20.00;60.20;;;;;;5032442;28;20041;-47
2023/06/11 06:41:05;;;;;;;5.40;2.90;;;20.00;61.20;;;;;;5032596;28;20081;-46
2023/06/11 06:43:34;;;;;;;8.60;3.28;;;20.10;61.70;;;;;;5031128;28;20021;-45
2023/06/11 06:46:01;;;;;;;9.10;2.85;;;20.30;61.60;;;;;;5036221;28;20513;-46
2023/06/11 06:48:28;;;;;;;7.55;3.30;;;20.50;61.40;;;;;;5043631;28;20041;-46
2023/06/11 06:50:54;;;;;;;4.47;2.83;;;20.40;60.30;;;;;;5026461;28;20232;-46
2023/06/11 06:53:21;;;;;;;5.70;3.28;;;20.40;60.30;;;;;;5032043;28;20025;-48
2023/06/11 06:55:48;;;;;;;7.28;3.53;;;20.70;60.90;;;;;;5042236;28;20041;-45
2023/06/11 06:58:14;;;;;;;7.95;3.47;;;20.80;59.10;;;;;;5040391;28;20535;-45
2023/06/11 07:00:41;;;;;;;7.05;3.72;;;20.90;59.90;;;;;;5040304;28;20079;-46
2023/06/11 07:03:09;;;;;;;6.93;3.10;;;21.00;59.50;;;;;;5045923;28;20115;-49
2023/06/11 07:05:40;;;;;;;6.32;2.85;;;21.10;59.50;;;;;;5036093;28;20355;-46
2023/06/11 07:08:08;;;;;;;7.95;3.80;;;21.30;59.60;;;;;;5033797;28;20053;-46
2023/06/11 07:10:40;;;;;;;7.70;3.40;;;21.40;59.20;;;;;;5027502;28;20033;-46
2023/06/11 07:13:11;;;;;;;6.57;3.45;;;21.60;59.60;;;;;;5032531;28;20329;-46
2023/06/11 07:15:37;;;;;;;7.38;3.45;;;21.50;60.80;;;;;;5033159;28;20018;-46
2023/06/11 07:18:08;;;;;;;7.20;3.90;;;21.40;59.90;;;;;;5038498;28;20033;-47
2023/06/11 07:20:35;;;;;;;10.40;3.78;;;21.20;59.70;;;;;;5032252;28;20025;-46
2023/06/11 07:23:04;;;;;;;5.68;3.67;;;21.40;59.00;;;;;;5027662;28;20485;-47
2023/06/11 07:25:31;;;;;;;7.63;3.47;;;21.60;58.40;;;;;;5047791;28;20116;-46
2023/06/11 07:28:00;;;;;;;7.65;3.33;;;22.30;57.80;;;;;;5025634;28;20418;-46
2023/06/11 07:30:28;;;;;;;5.55;3.28;;;22.90;56.70;;;;;;5031330;28;20029;-46
2023/06/11 07:32:53;;;;;;;7.22;3.38;;;23.30;56.70;;;;;;5019040;28;20151;-48
2023/06/11 07:35:23;;;;;;;8.88;3.30;;;23.90;55.20;;;;;;5046835;28;20107;-46
2023/06/11 07:37:50;;;;;;;7.55;4.05;;;24.20;53.70;;;;;;5045111;28;20041;-46
2023/06/11 07:40:17;;;;;;;4.80;3.20;;;24.70;53.10;;;;;;5027600;28;20477;-52
2023/06/11 07:42:45;;;;;;;9.63;4.00;;;24.70;52.50;;;;;;5045086;28;20115;-48
2023/06/11 07:45:16;;;;;;;8.85;3.38;;;24.50;52.00;;;;;;5030506;28;20042;-48
2023/06/11 07:47:43;;;;;;;10.93;4.10;;;24.20;53.20;;;;;;5030131;28;20115;-47
2023/06/11 07:50:10;;;;;;;8.68;3.75;;;24.30;53.50;;;;;;5044676;28;20033;-46
2023/06/11 07:52:38;;;;;;;8.48;3.70;;;24.40;51.70;;;;;;5046643;28;20053;-46
2023/06/11 07:55:05;;;;;;;7.55;3.83;;;25.00;51.20;;;;;;5052330;28;20027;-47
2023/06/11 07:57:32;;;;;;;4.57;3.67;;;25.70;51.10;;;;;;5052804;28;20020;-47
2023/06/11 08:00:00;;;;;;;6.43;4.20;;;25.80;49.40;;;;;;5031012;28;20025;-49
2023/06/11 08:02:27;;;;;;;7.72;4.28;;;26.20;48.40;;;;;;5034664;28;20021;-48
2023/06/11 08:04:55;;;;;;;5.25;3.40;;;26.40;48.30;;;;;;5019251;28;20041;-47
2023/06/11 08:07:22;;;;;;;5.75;3.80;;;26.50;47.90;;;;;;5022205;28;20367;-48
2023/06/11 08:09:50;;;;;;;7.15;4.35;;;26.90;46.30;;;;;;5040004;28;20040;-46
2023/06/11 08:12:16;;;;;;;8.40;4.65;;;26.90;46.90;;;;;;5036250;28;20098;-49
2023/06/11 08:14:43;;;;;;;7.95;4.50;;;27.10;46.10;;;;;;5031473;28;20108;-48
2023/06/11 08:17:10;;;;;;;5.70;4.20;;;27.40;45.90;;;;;;5026087;28;20026;-47
2023/06/11 08:19:36;;;;;;;8.13;4.70;;;27.70;46.50;;;;;;5034550;28;20036;-48
2023/06/11 08:22:03;;;;;;;8.82;4.38;;;28.00;45.20;;;;;;5047786;28;20029;-46
2023/06/11 08:24:31;;;;;;;5.38;4.40;;;28.10;45.30;;;;;;5036427;28;20032;-50
2023/06/11 08:26:58;;;;;;;7.45;4.68;;;28.30;45.30;;;;;;5054979;28;20035;-46
2023/06/11 08:29:25;;;;;;;9.50;4.50;;;28.40;44.80;;;;;;5047840;28;20131;-47
2023/06/11 08:31:52;;;;;;;5.00;3.97;;;28.50;43.90;;;;;;5032295;28;20469;-46
2023/06/11 08:34:22;;;;;;;7.05;4.30;;;28.70;43.40;;;;;;5022863;28;20082;-47
2023/06/11 08:36:49;;;;;;;5.63;4.30;;;28.50;45.10;;;;;;5051412;28;20372;-50
2023/06/11 08:39:16;;;;;;;10.70;4.45;;;28.60;44.90;;;;;;5055582;28;20113;-46
2023/06/11 08:41:43;;;;;;;8.73;5.25;;;28.80;45.30;;;;;;5040050;28;20048;-47
2023/06/11 08:44:12;;;;;;;7.18;4.68;;;28.90;44.50;;;;;;5036589;28;20039;-47
2023/06/11 08:46:43;;;;;;;6.15;4.82;;;28.90;44.00;;;;;;5044586;28;20399;-47
2023/06/11 08:49:21;;;;;;;6.30;4.13;;;29.30;44.10;;;;;;5034682;28;20029;-47
2023/06/11 08:51:49;;;;;;;11.23;4.75;;;29.30;44.50;;;;;;5040588;28;20032;-48
2023/06/11 08:54:17;;;;;;;10.13;4.70;;;29.20;43.60;;;;;;5055599;28;20389;-46
2023/06/11 08:56:44;;;;;;;8.95;4.43;;;29.30;46.30;;;;;;5055463;28;20025;-48
2023/06/11 08:59:11;;;;;;;8.98;3.90;;;29.20;46.70;;;;;;5030126;28;20116;-50
2023/06/11 09:01:40;;;;;;;8.55;3.92;;;29.10;44.80;;;;;;5036503;28;20051;-47
2023/06/11 09:04:07;;;;;;;6.17;4.07;;;29.20;46.40;;;;;;5041545;28;20029;-47
2023/06/11 09:06:34;;;;;;;7.13;4.15;;;29.10;43.90;;;;;;5045471;28;20344;-51
2023/06/11 09:09:07;;;;;;;6.05;3.97;;;29.30;44.40;;;;;;5016057;28;20057;-47
2023/06/11 09:11:52;;;;;;;7.90;4.43;;;29.10;46.50;;;;;;5033218;28;20042;-50
2023/06/11 09:14:21;;;;;;;9.43;4.13;;;29.00;47.60;;;;;;5037641;28;20425;-49
2023/06/11 09:16:48;;;;;;;8.98;3.97;;;29.20;45.00;;;;;;5036913;28;20037;-49
2023/06/11 09:19:17;;;;;;;7.28;4.05;;;28.90;45.90;;;;;;5030164;28;20117;-50
2023/06/11 09:21:54;;;;;;;4.35;3.60;;;28.90;47.40;;;;;;5053163;28;20036;-50
2023/06/11 09:24:23;;;;;;;5.47;4.15;;;28.90;47.30;;;;;;5053459;28;20021;-51
2023/06/11 09:26:51;;;;;;;7.05;3.80;;;29.00;47.30;;;;;;5033287;28;20089;-49
2023/06/11 09:29:17;;;;;;;6.57;4.38;;;28.90;45.80;;;;;;5033149;28;20017;-47
2023/06/11 09:31:44;;;;;;;7.97;4.20;;;29.10;47.30;;;;;;5033651;28;20588;-49
2023/06/11 09:34:17;;;;;;;8.10;4.40;;;29.20;48.20;;;;;;5030417;28;20035;-52
2023/06/11 09:36:48;;;;;;;7.25;4.40;;;29.30;47.90;;;;;;5038027;28;20056;-49
2023/06/11 09:39:16;;;;;;;5.70;3.70;;;29.50;46.70;;;;;;5041077;28;20045;-48
2023/06/11 09:41:49;;;;;;;6.60;4.00;;;29.50;47.70;;;;;;5018275;28;20479;-49
2023/06/11 09:44:19;;;;;;;7.45;4.78;;;29.40;46.90;;;;;;5025225;28;20041;-47
2023/06/11 09:46:48;;;;;;;5.13;3.92;;;29.30;47.00;;;;;;5030087;28;20026;-48
2023/06/11 09:49:15;;;;;;;6.80;4.28;;;29.50;46.50;;;;;;5040355;28;20052;-47
2023/06/11 09:51:43;;;;;;;4.65;3.85;;;29.40;46.40;;;;;;5039680;28;20033;-50
2023/06/11 09:54:13;;;;;;;8.60;5.03;;;29.40;47.90;;;;;;5048899;28;20139;-50
2023/06/11 09:56:42;;;;;;;6.30;3.88;;;29.30;47.00;;;;;;5038282;28;20140;-47
2023/06/11 09:59:13;;;;;;;5.93;4.10;;;29.20;46.30;;;;;;5053970;28;20043;-47
2023/06/11 10:01:43;;;;;;;8.32;3.80;;;29.20;46.70;;;;;;5045665;28;20033;-51
2023/06/11 10:04:10;;;;;;;11.27;4.75;;;29.50;45.00;;;;;;5031529;28;20021;-48
2023/06/11 10:06:44;;;;;;;7.55;4.03;;;29.40;49.30;;;;;;5021642;28;20020;-49
2023/06/11 10:09:12;;;;;;;6.18;4.43;;;29.40;46.90;;;;;;5049138;28;20029;-51
2023/06/11 10:11:42;;;;;;;8.65;4.57;;;29.30;47.10;;;;;;5033975;28;20093;-50
2023/06/11 10:14:16;;;;;;;6.75;4.03;;;29.30;47.30;;;;;;5053747;28;20112;-47
2023/06/11 10:16:54;;;;;;;6.97;4.43;;;29.60;48.50;;;;;;5035891;28;20036;-48
2023/06/11 10:19:26;;;;;;;7.00;4.43;;;29.60;46.20;;;;;;5035387;28;20022;-51
2023/06/11 10:21:52;;;;;;;8.25;4.97;;;29.50;47.40;;;;;;5033140;28;20360;-49
2023/06/11 10:24:25;;;;;;;5.20;3.92;;;29.50;46.20;;;;;;5029657;28;20072;-50
2023/06/11 10:27:33;;;;;;;7.95;4.40;;;29.70;45.50;;;;;;5034577;28;20111;-47
2023/06/11 10:30:01;;;;;;;8.47;4.30;;;29.50;44.30;;;;;;5038794;28;20037;-47
2023/06/11 10:32:28;;;;;;;7.10;4.68;;;29.70;46.60;;;;;;5033804;28;20300;-48
2023/06/11 10:35:20;;;;;;;9.40;4.53;;;29.60;46.10;;;;;;5034021;28;20033;-48
2023/06/11 10:37:48;;;;;;;8.80;4.53;;;29.90;46.00;;;;;;5015045;28;20034;-48
2023/06/11 10:40:14;;;;;;;7.78;4.30;;;29.90;45.80;;;;;;5016377;28;20120;-51
2023/06/11 10:42:53;;;;;;;6.53;4.30;;;30.10;45.60;;;;;;5030102;28;20095;-49
2023/06/11 10:45:20;;;;;;;6.77;4.40;;;29.90;44.90;;;;;;5032680;28;20032;-50
2023/06/11 10:47:45;;;;;;;10.35;4.53;;;29.70;46.50;;;;;;5027226;28;20022;-49
2023/06/11 10:50:35;;;;;;;10.52;5.07;;;30.00;47.40;;;;;;5046562;28;20094;-48
2023/06/11 10:53:10;;;;;;;8.77;4.10;;;30.10;46.20;;;;;;5034544;28;20129;-48
2023/06/11 10:55:44;;;;;;;8.88;4.63;;;30.20;44.20;;;;;;5034151;28;20028;-50
2023/06/11 10:58:32;;;;;;;7.10;4.20;;;30.10;44.70;;;;;;5021971;28;20034;-50
2023/06/11 11:01:00;;;;;;;7.97;4.60;;;30.30;45.10;;;;;;5020694;28;20459;-48
2023/06/11 11:03:30;;;;;;;8.00;4.68;;;30.30;43.50;;;;;;5047303;28;20029;-51
2023/06/11 11:05:58;;;;;;;6.28;4.22;;;30.10;43.60;;;;;;5044060;28;20018;-52
2023/06/11 11:08:24;;;;;;;7.57;3.87;;;30.00;44.20;;;;;;5026457;28;20025;-48
2023/06/11 11:10:54;;;;;;;8.52;4.75;;;30.10;46.10;;;;;;5046292;28;20029;-51
2023/06/11 11:13:22;;;;;;;8.45;4.43;;;30.30;44.40;;;;;;5029550;28;20359;-49
2023/06/11 11:15:50;;;;;;;9.65;4.93;;;30.30;46.50;;;;;;5029000;28;20453;-48
2023/06/11 11:18:19;;;;;;;9.70;4.95;;;30.40;43.80;;;;;;5052991;28;20040;-53
2023/06/11 11:20:45;;;;;;;6.97;4.45;;;30.60;43.30;;;;;;5042649;28;20057;-50
2023/06/11 11:23:12;;;;;;;7.35;4.40;;;30.40;43.80;;;;;;5013753;28;20053;-47
2023/06/11 11:25:42;;;;;;;6.50;4.95;;;30.60;47.20;;;;;;5034999;28;20518;-52
2023/06/11 11:28:12;;;;;;;5.72;4.63;;;30.60;41.40;;;;;;5029404;28;20057;-48
2023/06/11 11:30:40;;;;;;;7.82;4.78;;;30.60;41.60;;;;;;5027301;28;20022;-48
2023/06/11 11:33:06;;;;;;;6.05;4.75;;;30.70;44.40;;;;;;5030608;28;20057;-50
2023/06/11 11:35:45;;;;;;;7.57;5.32;;;30.50;40.20;;;;;;5037795;28;20174;-48
2023/06/11 11:38:12;;;;;;;7.88;4.78;;;30.30;39.80;;;;;;5035283;28;20523;-48
2023/06/11 11:40:39;;;;;;;7.18;4.78;;;30.30;38.30;;;;;;5051812;28;20072;-48
2023/06/11 11:43:13;;;;;;;15.23;6.25;;;30.20;37.40;;;;;;5046007;28;20036;-50
2023/06/11 11:45:46;;;;;;;13.98;5.38;;;30.30;40.50;;;;;;5030854;28;20116;-49
2023/06/11 11:48:15;;;;;;;9.02;5.03;;;30.30;38.80;;;;;;5030878;28;20017;-48
2023/06/11 11:50:44;;;;;;;5.25;4.15;;;30.20;36.80;;;;;;5030827;28;20018;-48
2023/06/11 11:53:15;;;;;;;;;;;30.30;40.60;;;;;;5028980;28;20025;-47
2023/06/11 11:55:46;;;;;;;7.30;4.68;;;30.40;37.10;;;;;;5022567;28;20003;-49
2023/06/11 11:58:16;;;;;;;8.90;5.13;;;30.50;38.50;;;;;;5040289;28;20413;-47
2023/06/11 12:00:59;;;;;;;7.10;4.40;;;30.30;36.70;;;;;;5030683;28;20060;-48
2023/06/11 12:03:29;;;;;;;8.77;5.13;;;30.10;37.70;;;;;;5031589;28;20378;-50
2023/06/11 12:06:22;;;;;;;8.40;5.53;;;29.90;37.30;;;;;;5027087;28;20079;-52
2023/06/11 12:08:48;;;;;;;6.75;4.53;;;29.90;35.60;;;;;;5029061;28;20037;-50
2023/06/11 12:11:14;;;;;;;6.72;4.35;;;29.70;35.20;;;;;;5026539;28;20050;-48
2023/06/11 12:13:41;;;;;;;9.20;5.60;;;29.50;36.50;;;;;;5031410;28;20495;-50
2023/06/11 12:16:12;;;;;;;9.18;4.40;;;29.40;36.40;;;;;;5028068;28;20060;-47
2023/06/11 12:18:40;;;;;;;7.05;4.32;;;29.30;35.90;;;;;;5031144;28;20033;-49
2023/06/11 12:21:07;;;;;;;8.23;5.07;;;29.50;39.90;;;;;;5029764;28;20029;-49
2023/06/11 12:23:33;;;;;;;7.22;4.90;;;29.60;36.70;;;;;;5029768;28;20060;-48
2023/06/11 12:26:01;;;;;;;9.75;5.20;;;29.50;34.90;;;;;;5030058;28;20391;-47
2023/06/11 12:28:32;;;;;;;9.60;4.50;;;29.40;35.50;;;;;;5030892;28;20101;-47
2023/06/11 12:31:00;;;;;;;12.48;5.13;;;29.30;35.10;;;;;;5033949;28;20486;-48
2023/06/11 12:33:27;;;;;;;7.70;4.40;;;29.30;36.50;;;;;;5029530;28;20039;-47
2023/06/11 12:35:54;;;;;;;13.07;6.03;;;29.30;35.80;;;;;;5029655;28;20744;-53
2023/06/11 12:38:21;;;;;;;8.50;4.97;;;29.30;34.80;;;;;;5030286;28;20029;-52
2023/06/11 12:40:52;;;;;;;8.15;4.85;;;29.20;34.70;;;;;;5030067;28;20029;-47
2023/06/11 12:43:17;;;;;;;9.98;5.13;;;29.20;36.10;;;;;;5030793;28;20064;-47
2023/06/11 12:45:46;;;;;;;7.18;4.65;;;29.20;36.20;;;;;;5027939;28;20371;-47
2023/06/11 12:48:16;;;;;;;6.93;4.93;;;29.30;35.00;;;;;;5031121;28;20037;-47
2023/06/11 12:50:43;;;;;;;6.45;4.18;;;29.10;36.10;;;;;;5029002;28;20033;-47
2023/06/11 12:53:10;;;;;;;7.40;4.47;;;29.10;35.20;;;;;;5029281;28;20037;-47
2023/06/11 12:55:37;;;;;;;6.45;4.30;;;29.20;36.80;;;;;;5027265;28;20426;-47